sensor_id;sensor_type;location;lat;lon;timestamp;P1;durP1;ratioP1;P2;durP2;ratioP2
9763;SDS011;4921;43.214;27.936;2023-07-20T00:00:14;6.13;;;3.83;;
9763;SDS011;4921;43.214;27.936;2023-07-20T00:02:42;4.13;;;3.53;;
9763;SDS011;4921;43.214;27.936;2023-07-20T00:05:09;4.50;;;4.13;;
9763;SDS011;4921;43.214;27.936;2023-07-20T00:07:36;3.77;;;3.47;;
9763;SDS011;4921;43.214;27.936;2023-07-20T00:10:05;3.87;;;3.57;;
9763;SDS011;4921;43.214;27.936;2023-07-20T00:12:33;7.33;;;3.97;;
9763;SDS011;4921;43.214;27.936;2023-07-20T00:15:00;3.80;;;3.50;;
9763;SDS011;4921;43.214;27.936;2023-07-20T00:17:27;4.77;;;3.93;;
9763;SDS011;4921;43.214;27.936;2023-07-20T00:19:54;4.13;;;3.73;;
9763;SDS011;4921;43.214;27.936;2023-07-20T00:22:21;5.20;;;4.40;;
9763;SDS011;4921;43.214;27.936;2023-07-20T00:24:47;4.13;;;3.63;;
9763;SDS011;4921;43.214;27.936;2023-07-20T00:27:16;4.37;;;4.03;;
9763;SDS011;4921;43.214;27.936;2023-07-20T00:29:43;5.07;;;3.90;;
9763;SDS011;4921;43.214;27.936;2023-07-20T00:32:10;4.53;;;4.13;;
9763;SDS011;4921;43.214;27.936;2023-07-20T00:34:37;6.40;;;4.20;;
9763;SDS011;4921;43.214;27.936;2023-07-20T00:37:04;5.60;;;3.97;;
9763;SDS011;4921;43.214;27.936;2023-07-20T00:39:31;4.40;;;4.00;;
9763;SDS011;4921;43.214;27.936;2023-07-20T00:41:58;4.23;;;3.80;;
9763;SDS011;4921;43.214;27.936;2023-07-20T00:44:26;3.90;;;3.60;;
9763;SDS011;4921;43.214;27.936;2023-07-20T00:46:54;3.90;;;3.60;;
9763;SDS011;4921;43.214;27.936;2023-07-20T00:49:21;4.07;;;3.77;;
9763;SDS011;4921;43.214;27.936;2023-07-20T00:51:49;4.30;;;3.93;;
9763;SDS011;4921;43.214;27.936;2023-07-20T00:54:16;5.30;;;3.43;;
9763;SDS011;4921;43.214;27.936;2023-07-20T00:56:43;3.70;;;3.40;;
9763;SDS011;4921;43.214;27.936;2023-07-20T00:59:11;4.60;;;4.13;;
9763;SDS011;4921;43.214;27.936;2023-07-20T01:01:39;3.83;;;3.53;;
9763;SDS011;4921;43.214;27.936;2023-07-20T01:04:07;4.23;;;3.87;;
9763;SDS011;4921;43.214;27.936;2023-07-20T01:06:36;4.33;;;3.90;;
9763;SDS011;4921;43.214;27.936;2023-07-20T01:09:13;3.90;;;3.60;;
9763;SDS011;4921;43.214;27.936;2023-07-20T01:11:47;8.07;;;3.73;;
9763;SDS011;4921;43.214;27.936;2023-07-20T01:14:21;6.27;;;3.87;;
9763;SDS011;4921;43.214;27.936;2023-07-20T01:16:51;4.63;;;3.73;;
9763;SDS011;4921;43.214;27.936;2023-07-20T01:19:18;4.40;;;4.00;;
9763;SDS011;4921;43.214;27.936;2023-07-20T01:21:47;4.07;;;3.77;;
9763;SDS011;4921;43.214;27.936;2023-07-20T01:27:36;6.03;;;4.70;;
9763;SDS011;4921;43.214;27.936;2023-07-20T01:30:43;4.37;;;3.93;;
9763;SDS011;4921;43.214;27.936;2023-07-20T01:33:16;5.20;;;4.80;;
9763;SDS011;4921;43.214;27.936;2023-07-20T01:35:46;4.40;;;4.10;;
9763;SDS011;4921;43.214;27.936;2023-07-20T01:38:21;4.30;;;4.00;;
9763;SDS011;4921;43.214;27.936;2023-07-20T01:40:51;4.17;;;3.87;;
9763;SDS011;4921;43.214;27.936;2023-07-20T01:43:18;4.03;;;3.70;;
9763;SDS011;4921;43.214;27.936;2023-07-20T01:45:44;5.97;;;3.77;;
9763;SDS011;4921;43.214;27.936;2023-07-20T01:48:11;4.37;;;3.97;;
9763;SDS011;4921;43.214;27.936;2023-07-20T01:50:39;3.93;;;3.63;;
9763;SDS011;4921;43.214;27.936;2023-07-20T01:53:06;4.30;;;3.93;;
9763;SDS011;4921;43.214;27.936;2023-07-20T01:55:33;5.00;;;4.37;;
9763;SDS011;4921;43.214;27.936;2023-07-20T01:58:00;4.03;;;3.83;;
9763;SDS011;4921;43.214;27.936;2023-07-20T02:00:28;6.67;;;5.00;;
9763;SDS011;4921;43.214;27.936;2023-07-20T02:02:55;5.47;;;4.90;;
9763;SDS011;4921;43.214;27.936;2023-07-20T02:05:22;6.13;;;4.80;;
9763;SDS011;4921;43.214;27.936;2023-07-20T02:07:51;4.83;;;4.30;;
9763;SDS011;4921;43.214;27.936;2023-07-20T02:10:18;6.27;;;5.67;;
9763;SDS011;4921;43.214;27.936;2023-07-20T02:12:45;7.43;;;5.47;;
9763;SDS011;4921;43.214;27.936;2023-07-20T02:15:14;6.17;;;4.60;;
9763;SDS011;4921;43.214;27.936;2023-07-20T02:17:42;7.00;;;4.30;;
9763;SDS011;4921;43.214;27.936;2023-07-20T02:20:09;5.77;;;4.07;;
9763;SDS011;4921;43.214;27.936;2023-07-20T02:22:37;4.37;;;3.97;;
9763;SDS011;4921;43.214;27.936;2023-07-20T02:25:06;7.67;;;4.90;;
9763;SDS011;4921;43.214;27.936;2023-07-20T02:27:34;4.60;;;4.20;;
9763;SDS011;4921;43.214;27.936;2023-07-20T02:30:01;5.07;;;4.60;;
9763;SDS011;4921;43.214;27.936;2023-07-20T02:32:29;6.43;;;4.10;;
9763;SDS011;4921;43.214;27.936;2023-07-20T02:34:57;4.70;;;4.17;;
9763;SDS011;4921;43.214;27.936;2023-07-20T02:37:24;4.50;;;3.80;;
9763;SDS011;4921;43.214;27.936;2023-07-20T02:39:51;4.87;;;4.30;;
9763;SDS011;4921;43.214;27.936;2023-07-20T02:42:19;7.87;;;4.23;;
9763;SDS011;4921;43.214;27.936;2023-07-20T02:44:48;4.93;;;4.40;;
9763;SDS011;4921;43.214;27.936;2023-07-20T02:47:15;4.37;;;4.07;;
9763;SDS011;4921;43.214;27.936;2023-07-20T02:49:42;6.03;;;4.40;;
9763;SDS011;4921;43.214;27.936;2023-07-20T02:52:09;4.43;;;4.03;;
9763;SDS011;4921;43.214;27.936;2023-07-20T02:54:35;4.90;;;4.50;;
9763;SDS011;4921;43.214;27.936;2023-07-20T02:57:03;6.07;;;5.10;;
9763;SDS011;4921;43.214;27.936;2023-07-20T02:59:31;4.90;;;4.40;;
9763;SDS011;4921;43.214;27.936;2023-07-20T03:01:58;6.77;;;6.07;;
9763;SDS011;4921;43.214;27.936;2023-07-20T03:04:25;7.77;;;4.47;;
9763;SDS011;4921;43.214;27.936;2023-07-20T03:06:53;5.40;;;4.77;;
9763;SDS011;4921;43.214;27.936;2023-07-20T03:09:20;5.43;;;4.70;;
9763;SDS011;4921;43.214;27.936;2023-07-20T03:11:47;7.60;;;6.90;;
9763;SDS011;4921;43.214;27.936;2023-07-20T03:14:14;5.27;;;4.87;;
9763;SDS011;4921;43.214;27.936;2023-07-20T03:16:42;9.33;;;5.20;;
9763;SDS011;4921;43.214;27.936;2023-07-20T03:19:09;7.50;;;5.93;;
9763;SDS011;4921;43.214;27.936;2023-07-20T03:21:36;8.70;;;5.60;;
9763;SDS011;4921;43.214;27.936;2023-07-20T03:24:06;5.77;;;5.20;;
9763;SDS011;4921;43.214;27.936;2023-07-20T03:26:33;7.40;;;4.87;;
9763;SDS011;4921;43.214;27.936;2023-07-20T03:29:00;6.50;;;5.57;;
9763;SDS011;4921;43.214;27.936;2023-07-20T03:31:27;9.87;;;5.13;;
9763;SDS011;4921;43.214;27.936;2023-07-20T03:33:56;6.83;;;4.70;;
9763;SDS011;4921;43.214;27.936;2023-07-20T03:36:23;6.47;;;4.90;;
9763;SDS011;4921;43.214;27.936;2023-07-20T03:38:50;8.47;;;5.00;;
9763;SDS011;4921;43.214;27.936;2023-07-20T03:41:17;12.37;;;6.10;;
9763;SDS011;4921;43.214;27.936;2023-07-20T03:43:45;13.17;;;5.80;;
9763;SDS011;4921;43.214;27.936;2023-07-20T03:46:12;17.30;;;6.33;;
9763;SDS011;4921;43.214;27.936;2023-07-20T03:48:39;11.27;;;6.33;;
9763;SDS011;4921;43.214;27.936;2023-07-20T03:51:08;7.13;;;5.07;;
9763;SDS011;4921;43.214;27.936;2023-07-20T03:53:35;10.13;;;5.97;;
9763;SDS011;4921;43.214;27.936;2023-07-20T03:56:01;5.40;;;4.97;;
9763;SDS011;4921;43.214;27.936;2023-07-20T03:58:29;14.43;;;7.00;;
9763;SDS011;4921;43.214;27.936;2023-07-20T04:00:57;12.27;;;5.23;;
9763;SDS011;4921;43.214;27.936;2023-07-20T04:03:24;9.73;;;5.67;;
9763;SDS011;4921;43.214;27.936;2023-07-20T04:05:53;8.23;;;5.17;;
9763;SDS011;4921;43.214;27.936;2023-07-20T04:08:21;11.57;;;5.60;;
9763;SDS011;4921;43.214;27.936;2023-07-20T04:10:49;5.60;;;4.80;;
9763;SDS011;4921;43.214;27.936;2023-07-20T04:13:16;6.10;;;5.20;;
9763;SDS011;4921;43.214;27.936;2023-07-20T04:15:44;5.97;;;5.10;;
9763;SDS011;4921;43.214;27.936;2023-07-20T04:18:11;9.23;;;5.50;;
9763;SDS011;4921;43.214;27.936;2023-07-20T04:20:38;5.60;;;5.10;;
9763;SDS011;4921;43.214;27.936;2023-07-20T04:23:05;7.27;;;5.10;;
9763;SDS011;4921;43.214;27.936;2023-07-20T04:25:33;5.67;;;4.93;;
9763;SDS011;4921;43.214;27.936;2023-07-20T04:28:04;16.57;;;6.27;;
9763;SDS011;4921;43.214;27.936;2023-07-20T04:30:33;18.37;;;7.03;;
9763;SDS011;4921;43.214;27.936;2023-07-20T04:33:00;8.17;;;4.80;;
9763;SDS011;4921;43.214;27.936;2023-07-20T04:35:47;8.33;;;5.10;;
9763;SDS011;4921;43.214;27.936;2023-07-20T04:38:15;7.50;;;5.27;;
9763;SDS011;4921;43.214;27.936;2023-07-20T04:40:45;7.30;;;4.77;;
9763;SDS011;4921;43.214;27.936;2023-07-20T04:43:12;7.43;;;4.70;;
9763;SDS011;4921;43.214;27.936;2023-07-20T04:45:39;9.03;;;4.93;;
9763;SDS011;4921;43.214;27.936;2023-07-20T04:48:08;7.70;;;5.20;;
9763;SDS011;4921;43.214;27.936;2023-07-20T04:50:36;7.50;;;4.50;;
9763;SDS011;4921;43.214;27.936;2023-07-20T04:53:03;12.23;;;4.67;;
9763;SDS011;4921;43.214;27.936;2023-07-20T04:55:30;8.97;;;4.70;;
9763;SDS011;4921;43.214;27.936;2023-07-20T04:58:00;12.87;;;4.83;;
9763;SDS011;4921;43.214;27.936;2023-07-20T05:00:27;14.90;;;4.80;;
9763;SDS011;4921;43.214;27.936;2023-07-20T05:02:54;8.83;;;4.57;;
9763;SDS011;4921;43.214;27.936;2023-07-20T05:05:21;7.20;;;4.60;;
9763;SDS011;4921;43.214;27.936;2023-07-20T05:07:48;12.83;;;4.63;;
9763;SDS011;4921;43.214;27.936;2023-07-20T05:10:15;10.57;;;5.10;;
9763;SDS011;4921;43.214;27.936;2023-07-20T05:12:42;9.90;;;4.87;;
9763;SDS011;4921;43.214;27.936;2023-07-20T05:15:11;12.23;;;5.33;;
9763;SDS011;4921;43.214;27.936;2023-07-20T05:17:38;9.90;;;4.80;;
9763;SDS011;4921;43.214;27.936;2023-07-20T05:20:06;7.53;;;4.80;;
9763;SDS011;4921;43.214;27.936;2023-07-20T05:22:35;15.40;;;5.43;;
9763;SDS011;4921;43.214;27.936;2023-07-20T05:25:05;19.07;;;6.37;;
9763;SDS011;4921;43.214;27.936;2023-07-20T05:27:33;8.17;;;4.90;;
9763;SDS011;4921;43.214;27.936;2023-07-20T05:30:00;11.97;;;5.20;;
9763;SDS011;4921;43.214;27.936;2023-07-20T05:32:29;10.30;;;5.63;;
9763;SDS011;4921;43.214;27.936;2023-07-20T05:34:57;9.63;;;5.10;;
9763;SDS011;4921;43.214;27.936;2023-07-20T05:37:24;13.57;;;4.90;;
9763;SDS011;4921;43.214;27.936;2023-07-20T05:39:51;14.83;;;5.80;;
9763;SDS011;4921;43.214;27.936;2023-07-20T05:42:18;8.47;;;4.70;;
9763;SDS011;4921;43.214;27.936;2023-07-20T05:44:45;15.67;;;5.47;;
9763;SDS011;4921;43.214;27.936;2023-07-20T05:47:12;11.10;;;5.20;;
9763;SDS011;4921;43.214;27.936;2023-07-20T05:49:40;6.53;;;5.03;;
9763;SDS011;4921;43.214;27.936;2023-07-20T05:52:07;9.93;;;4.57;;
9763;SDS011;4921;43.214;27.936;2023-07-20T05:54:34;14.90;;;4.57;;
9763;SDS011;4921;43.214;27.936;2023-07-20T05:57:01;10.03;;;5.27;;
9763;SDS011;4921;43.214;27.936;2023-07-20T05:59:28;12.60;;;5.07;;
9763;SDS011;4921;43.214;27.936;2023-07-20T06:01:55;19.77;;;6.80;;
9763;SDS011;4921;43.214;27.936;2023-07-20T06:04:22;14.87;;;6.33;;
9763;SDS011;4921;43.214;27.936;2023-07-20T06:06:51;19.23;;;6.37;;
9763;SDS011;4921;43.214;27.936;2023-07-20T06:09:18;10.40;;;5.20;;
9763;SDS011;4921;43.214;27.936;2023-07-20T06:11:45;16.43;;;6.27;;
9763;SDS011;4921;43.214;27.936;2023-07-20T06:14:12;11.93;;;5.80;;
9763;SDS011;4921;43.214;27.936;2023-07-20T06:16:39;19.87;;;6.70;;
9763;SDS011;4921;43.214;27.936;2023-07-20T06:19:06;16.57;;;6.40;;
9763;SDS011;4921;43.214;27.936;2023-07-20T06:21:33;18.90;;;6.37;;
9763;SDS011;4921;43.214;27.936;2023-07-20T06:24:01;13.47;;;6.03;;
9763;SDS011;4921;43.214;27.936;2023-07-20T06:26:28;10.77;;;5.10;;
9763;SDS011;4921;43.214;27.936;2023-07-20T06:28:55;11.53;;;6.20;;
9763;SDS011;4921;43.214;27.936;2023-07-20T06:31:22;24.13;;;7.13;;
9763;SDS011;4921;43.214;27.936;2023-07-20T06:33:49;18.07;;;6.23;;
9763;SDS011;4921;43.214;27.936;2023-07-20T06:36:17;9.87;;;4.83;;
9763;SDS011;4921;43.214;27.936;2023-07-20T06:38:44;18.67;;;5.27;;
9763;SDS011;4921;43.214;27.936;2023-07-20T06:41:13;13.13;;;4.40;;
9763;SDS011;4921;43.214;27.936;2023-07-20T06:43:39;13.10;;;4.37;;
9763;SDS011;4921;43.214;27.936;2023-07-20T06:46:06;9.77;;;4.40;;
9763;SDS011;4921;43.214;27.936;2023-07-20T06:48:33;9.20;;;3.87;;
9763;SDS011;4921;43.214;27.936;2023-07-20T06:51:00;6.47;;;3.00;;
9763;SDS011;4921;43.214;27.936;2023-07-20T06:53:29;10.90;;;3.50;;
9763;SDS011;4921;43.214;27.936;2023-07-20T06:55:56;10.20;;;4.17;;
9763;SDS011;4921;43.214;27.936;2023-07-20T06:58:25;6.90;;;3.33;;
9763;SDS011;4921;43.214;27.936;2023-07-20T07:00:52;7.50;;;3.67;;
9763;SDS011;4921;43.214;27.936;2023-07-20T07:03:18;9.77;;;3.90;;
9763;SDS011;4921;43.214;27.936;2023-07-20T07:05:47;8.00;;;3.30;;
9763;SDS011;4921;43.214;27.936;2023-07-20T07:08:13;5.43;;;3.07;;
9763;SDS011;4921;43.214;27.936;2023-07-20T07:10:40;5.50;;;2.80;;
9763;SDS011;4921;43.214;27.936;2023-07-20T07:13:07;6.13;;;3.70;;
9763;SDS011;4921;43.214;27.936;2023-07-20T07:15:36;7.83;;;3.20;;
9763;SDS011;4921;43.214;27.936;2023-07-20T07:18:03;6.97;;;3.20;;
9763;SDS011;4921;43.214;27.936;2023-07-20T07:20:30;5.00;;;3.07;;
9763;SDS011;4921;43.214;27.936;2023-07-20T07:22:57;8.47;;;3.67;;
9763;SDS011;4921;43.214;27.936;2023-07-20T07:25:24;4.43;;;3.27;;
9763;SDS011;4921;43.214;27.936;2023-07-20T07:27:52;8.03;;;3.53;;
9763;SDS011;4921;43.214;27.936;2023-07-20T07:30:20;7.50;;;3.33;;
9763;SDS011;4921;43.214;27.936;2023-07-20T07:32:49;7.20;;;3.43;;
9763;SDS011;4921;43.214;27.936;2023-07-20T07:35:16;8.00;;;3.40;;
9763;SDS011;4921;43.214;27.936;2023-07-20T07:37:43;4.90;;;3.30;;
9763;SDS011;4921;43.214;27.936;2023-07-20T07:40:11;3.83;;;3.07;;
9763;SDS011;4921;43.214;27.936;2023-07-20T07:42:39;5.97;;;3.10;;
9763;SDS011;4921;43.214;27.936;2023-07-20T07:45:07;6.97;;;3.00;;
9763;SDS011;4921;43.214;27.936;2023-07-20T07:47:34;11.00;;;4.00;;
9763;SDS011;4921;43.214;27.936;2023-07-20T07:50:03;7.70;;;3.87;;
9763;SDS011;4921;43.214;27.936;2023-07-20T07:52:30;7.00;;;3.07;;
9763;SDS011;4921;43.214;27.936;2023-07-20T07:54:57;9.40;;;3.17;;
9763;SDS011;4921;43.214;27.936;2023-07-20T07:57:25;4.53;;;2.90;;
9763;SDS011;4921;43.214;27.936;2023-07-20T07:59:52;7.63;;;3.00;;
9763;SDS011;4921;43.214;27.936;2023-07-20T08:02:19;9.73;;;3.47;;
9763;SDS011;4921;43.214;27.936;2023-07-20T08:04:46;6.80;;;2.80;;
9763;SDS011;4921;43.214;27.936;2023-07-20T08:07:18;10.40;;;3.20;;
9763;SDS011;4921;43.214;27.936;2023-07-20T08:09:46;11.23;;;3.37;;
9763;SDS011;4921;43.214;27.936;2023-07-20T08:12:21;8.13;;;3.17;;
9763;SDS011;4921;43.214;27.936;2023-07-20T08:14:48;8.23;;;2.80;;
9763;SDS011;4921;43.214;27.936;2023-07-20T08:17:21;5.73;;;2.80;;
9763;SDS011;4921;43.214;27.936;2023-07-20T08:19:53;5.33;;;3.00;;
9763;SDS011;4921;43.214;27.936;2023-07-20T08:22:42;6.17;;;3.00;;
9763;SDS011;4921;43.214;27.936;2023-07-20T08:25:30;7.90;;;3.37;;
9763;SDS011;4921;43.214;27.936;2023-07-20T08:28:00;10.13;;;3.23;;
9763;SDS011;4921;43.214;27.936;2023-07-20T08:30:41;13.63;;;3.13;;
9763;SDS011;4921;43.214;27.936;2023-07-20T08:33:20;10.93;;;3.33;;
9763;SDS011;4921;43.214;27.936;2023-07-20T08:35:48;8.10;;;3.50;;
9763;SDS011;4921;43.214;27.936;2023-07-20T08:38:17;5.90;;;3.33;;
9763;SDS011;4921;43.214;27.936;2023-07-20T08:40:44;8.40;;;3.00;;
9763;SDS011;4921;43.214;27.936;2023-07-20T08:43:12;6.83;;;3.33;;
9763;SDS011;4921;43.214;27.936;2023-07-20T08:45:41;4.50;;;3.00;;
9763;SDS011;4921;43.214;27.936;2023-07-20T08:48:11;6.53;;;2.80;;
9763;SDS011;4921;43.214;27.936;2023-07-20T08:50:38;6.77;;;3.33;;
9763;SDS011;4921;43.214;27.936;2023-07-20T08:56:02;10.87;;;3.60;;
9763;SDS011;4921;43.214;27.936;2023-07-20T08:58:31;10.30;;;3.60;;
9763;SDS011;4921;43.214;27.936;2023-07-20T09:00:59;9.53;;;3.87;;
9763;SDS011;4921;43.214;27.936;2023-07-20T09:03:27;11.63;;;3.93;;
9763;SDS011;4921;43.214;27.936;2023-07-20T09:05:54;11.20;;;4.53;;
9763;SDS011;4921;43.214;27.936;2023-07-20T09:08:21;11.50;;;3.70;;
9763;SDS011;4921;43.214;27.936;2023-07-20T09:10:48;15.03;;;3.87;;
9763;SDS011;4921;43.214;27.936;2023-07-20T09:13:17;10.68;;;3.70;;
9763;SDS011;4921;43.214;27.936;2023-07-20T09:15:47;8.10;;;4.53;;
9763;SDS011;4921;43.214;27.936;2023-07-20T09:18:25;9.82;;;3.65;;
9763;SDS011;4921;43.214;27.936;2023-07-20T09:20:53;11.18;;;4.10;;
9763;SDS011;4921;43.214;27.936;2023-07-20T09:23:29;13.52;;;4.75;;
9763;SDS011;4921;43.214;27.936;2023-07-20T09:25:57;10.07;;;3.88;;
9763;SDS011;4921;43.214;27.936;2023-07-20T09:28:26;8.45;;;4.18;;
9763;SDS011;4921;43.214;27.936;2023-07-20T09:30:54;8.45;;;4.32;;
9763;SDS011;4921;43.214;27.936;2023-07-20T09:33:23;10.13;;;3.72;;
9763;SDS011;4921;43.214;27.936;2023-07-20T09:35:51;9.90;;;4.00;;
9763;SDS011;4921;43.214;27.936;2023-07-20T09:38:18;5.93;;;3.90;;
9763;SDS011;4921;43.214;27.936;2023-07-20T09:40:45;9.13;;;3.85;;
9763;SDS011;4921;43.214;27.936;2023-07-20T09:43:12;6.20;;;3.47;;
9763;SDS011;4921;43.214;27.936;2023-07-20T09:45:44;9.82;;;3.58;;
9763;SDS011;4921;43.214;27.936;2023-07-20T09:48:11;9.50;;;3.40;;
9763;SDS011;4921;43.214;27.936;2023-07-20T09:50:41;10.75;;;3.95;;
9763;SDS011;4921;43.214;27.936;2023-07-20T09:53:09;11.38;;;4.40;;
9763;SDS011;4921;43.214;27.936;2023-07-20T09:55:39;7.82;;;3.53;;
9763;SDS011;4921;43.214;27.936;2023-07-20T09:58:08;13.80;;;4.35;;
9763;SDS011;4921;43.214;27.936;2023-07-20T10:00:36;6.82;;;3.70;;
9763;SDS011;4921;43.214;27.936;2023-07-20T10:03:05;11.13;;;4.38;;
9763;SDS011;4921;43.214;27.936;2023-07-20T10:05:43;10.45;;;3.70;;
9763;SDS011;4921;43.214;27.936;2023-07-20T10:08:22;6.45;;;3.70;;
9763;SDS011;4921;43.214;27.936;2023-07-20T10:11:03;10.13;;;3.83;;
9763;SDS011;4921;43.214;27.936;2023-07-20T10:13:37;8.52;;;3.83;;
9763;SDS011;4921;43.214;27.936;2023-07-20T10:16:07;12.55;;;3.38;;
9763;SDS011;4921;43.214;27.936;2023-07-20T10:18:41;10.93;;;3.60;;
9763;SDS011;4921;43.214;27.936;2023-07-20T10:21:22;10.35;;;3.88;;
9763;SDS011;4921;43.214;27.936;2023-07-20T10:24:03;9.23;;;3.70;;
9763;SDS011;4921;43.214;27.936;2023-07-20T10:26:32;12.55;;;4.57;;
9763;SDS011;4921;43.214;27.936;2023-07-20T10:29:00;8.35;;;4.70;;
9763;SDS011;4921;43.214;27.936;2023-07-20T10:31:37;8.40;;;4.35;;
9763;SDS011;4921;43.214;27.936;2023-07-20T10:34:13;9.50;;;4.70;;
9763;SDS011;4921;43.214;27.936;2023-07-20T10:36:58;11.95;;;4.50;;
9763;SDS011;4921;43.214;27.936;2023-07-20T10:39:31;11.27;;;4.68;;
9763;SDS011;4921;43.214;27.936;2023-07-20T10:41:59;9.05;;;4.07;;
9763;SDS011;4921;43.214;27.936;2023-07-20T10:44:28;14.05;;;4.65;;
9763;SDS011;4921;43.214;27.936;2023-07-20T10:47:02;6.93;;;4.20;;
9763;SDS011;4921;43.214;27.936;2023-07-20T10:50:00;11.70;;;4.63;;
9763;SDS011;4921;43.214;27.936;2023-07-20T10:52:36;8.88;;;4.25;;
9763;SDS011;4921;43.214;27.936;2023-07-20T10:55:10;7.32;;;4.10;;
9763;SDS011;4921;43.214;27.936;2023-07-20T10:57:46;7.43;;;4.38;;
9763;SDS011;4921;43.214;27.936;2023-07-20T11:00:33;10.20;;;4.00;;
9763;SDS011;4921;43.214;27.936;2023-07-20T11:03:01;9.27;;;4.25;;
9763;SDS011;4921;43.214;27.936;2023-07-20T11:05:44;6.43;;;4.22;;
9763;SDS011;4921;43.214;27.936;2023-07-20T11:08:14;8.10;;;4.43;;
9763;SDS011;4921;43.214;27.936;2023-07-20T11:11:20;8.85;;;4.20;;
9763;SDS011;4921;43.214;27.936;2023-07-20T11:13:54;4.95;;;4.03;;
9763;SDS011;4921;43.214;27.936;2023-07-20T11:16:34;12.85;;;4.30;;
9763;SDS011;4921;43.214;27.936;2023-07-20T11:19:03;11.02;;;4.30;;
9763;SDS011;4921;43.214;27.936;2023-07-20T11:21:36;10.55;;;4.38;;
9763;SDS011;4921;43.214;27.936;2023-07-20T11:24:05;9.05;;;4.53;;
9763;SDS011;4921;43.214;27.936;2023-07-20T11:26:45;9.10;;;4.47;;
9763;SDS011;4921;43.214;27.936;2023-07-20T11:29:15;7.25;;;4.32;;
9763;SDS011;4921;43.214;27.936;2023-07-20T11:31:43;8.73;;;4.47;;
9763;SDS011;4921;43.214;27.936;2023-07-20T11:34:12;9.95;;;4.20;;
9763;SDS011;4921;43.214;27.936;2023-07-20T11:36:42;8.07;;;4.60;;
9763;SDS011;4921;43.214;27.936;2023-07-20T11:39:10;12.25;;;4.60;;
9763;SDS011;4921;43.214;27.936;2023-07-20T11:41:39;11.20;;;5.38;;
9763;SDS011;4921;43.214;27.936;2023-07-20T11:44:10;11.75;;;4.53;;
9763;SDS011;4921;43.214;27.936;2023-07-20T11:46:40;9.05;;;4.30;;
9763;SDS011;4921;43.214;27.936;2023-07-20T11:49:08;8.60;;;4.18;;
9763;SDS011;4921;43.214;27.936;2023-07-20T11:51:35;9.23;;;4.32;;
9763;SDS011;4921;43.214;27.936;2023-07-20T11:54:05;14.63;;;5.05;;
9763;SDS011;4921;43.214;27.936;2023-07-20T11:56:33;8.73;;;4.70;;
9763;SDS011;4921;43.214;27.936;2023-07-20T11:59:00;4.80;;;4.25;;
9763;SDS011;4921;43.214;27.936;2023-07-20T12:01:28;6.28;;;4.18;;
9763;SDS011;4921;43.214;27.936;2023-07-20T12:03:57;7.32;;;3.95;;
9763;SDS011;4921;43.214;27.936;2023-07-20T12:06:27;10.43;;;4.43;;
9763;SDS011;4921;43.214;27.936;2023-07-20T12:08:56;12.83;;;4.73;;
9763;SDS011;4921;43.214;27.936;2023-07-20T12:11:32;9.55;;;4.35;;
9763;SDS011;4921;43.214;27.936;2023-07-20T12:13:59;7.03;;;4.65;;
9763;SDS011;4921;43.214;27.936;2023-07-20T12:16:27;6.15;;;4.25;;
9763;SDS011;4921;43.214;27.936;2023-07-20T12:18:59;8.93;;;4.30;;
9763;SDS011;4921;43.214;27.936;2023-07-20T12:21:27;13.45;;;5.10;;
9763;SDS011;4921;43.214;27.936;2023-07-20T12:23:55;9.23;;;4.80;;
9763;SDS011;4921;43.214;27.936;2023-07-20T12:26:23;11.53;;;5.13;;
9763;SDS011;4921;43.214;27.936;2023-07-20T12:28:52;10.60;;;4.53;;
9763;SDS011;4921;43.214;27.936;2023-07-20T12:31:19;10.43;;;4.70;;
9763;SDS011;4921;43.214;27.936;2023-07-20T12:33:48;6.32;;;4.45;;
9763;SDS011;4921;43.214;27.936;2023-07-20T12:36:16;6.70;;;4.70;;
9763;SDS011;4921;43.214;27.936;2023-07-20T12:38:50;10.47;;;4.63;;
9763;SDS011;4921;43.214;27.936;2023-07-20T12:41:18;5.97;;;4.00;;
9763;SDS011;4921;43.214;27.936;2023-07-20T12:43:45;10.43;;;4.70;;
9763;SDS011;4921;43.214;27.936;2023-07-20T12:46:14;8.68;;;4.97;;
9763;SDS011;4921;43.214;27.936;2023-07-20T12:48:41;9.25;;;4.50;;
9763;SDS011;4921;43.214;27.936;2023-07-20T12:51:09;10.40;;;4.80;;
9763;SDS011;4921;43.214;27.936;2023-07-20T12:53:37;14.57;;;4.93;;
9763;SDS011;4921;43.214;27.936;2023-07-20T12:56:04;9.20;;;4.73;;
9763;SDS011;4921;43.214;27.936;2023-07-20T12:58:31;13.03;;;4.90;;
9763;SDS011;4921;43.214;27.936;2023-07-20T13:00:58;13.00;;;4.40;;
9763;SDS011;4921;43.214;27.936;2023-07-20T13:03:27;5.27;;;4.60;;
9763;SDS011;4921;43.214;27.936;2023-07-20T13:05:54;9.83;;;4.57;;
9763;SDS011;4921;43.214;27.936;2023-07-20T13:08:21;12.03;;;5.03;;
9763;SDS011;4921;43.214;27.936;2023-07-20T13:10:50;5.47;;;4.37;;
9763;SDS011;4921;43.214;27.936;2023-07-20T13:13:18;7.53;;;5.20;;
9763;SDS011;4921;43.214;27.936;2023-07-20T13:15:45;8.43;;;4.63;;
9763;SDS011;4921;43.214;27.936;2023-07-20T13:18:13;12.13;;;5.30;;
9763;SDS011;4921;43.214;27.936;2023-07-20T13:20:41;9.10;;;5.67;;
9763;SDS011;4921;43.214;27.936;2023-07-20T13:23:08;10.60;;;5.33;;
9763;SDS011;4921;43.214;27.936;2023-07-20T13:25:35;10.17;;;5.60;;
9763;SDS011;4921;43.214;27.936;2023-07-20T13:28:02;10.53;;;5.27;;
9763;SDS011;4921;43.214;27.936;2023-07-20T13:30:30;11.23;;;5.73;;
9763;SDS011;4921;43.214;27.936;2023-07-20T13:32:57;8.77;;;5.67;;
9763;SDS011;4921;43.214;27.936;2023-07-20T13:35:24;8.27;;;5.40;;
9763;SDS011;4921;43.214;27.936;2023-07-20T13:37:52;8.10;;;5.17;;
9763;SDS011;4921;43.214;27.936;2023-07-20T13:40:19;7.73;;;5.30;;
9763;SDS011;4921;43.214;27.936;2023-07-20T13:42:47;9.97;;;5.80;;
9763;SDS011;4921;43.214;27.936;2023-07-20T13:45:14;10.20;;;5.80;;
9763;SDS011;4921;43.214;27.936;2023-07-20T13:47:42;10.80;;;5.70;;
9763;SDS011;4921;43.214;27.936;2023-07-20T13:50:09;6.87;;;5.37;;
9763;SDS011;4921;43.214;27.936;2023-07-20T13:52:36;6.57;;;5.37;;
9763;SDS011;4921;43.214;27.936;2023-07-20T13:55:04;6.97;;;5.47;;
9763;SDS011;4921;43.214;27.936;2023-07-20T13:57:31;11.27;;;5.57;;
9763;SDS011;4921;43.214;27.936;2023-07-20T13:59:58;10.60;;;5.60;;
9763;SDS011;4921;43.214;27.936;2023-07-20T14:02:27;9.73;;;6.07;;
9763;SDS011;4921;43.214;27.936;2023-07-20T14:04:54;6.10;;;5.60;;
9763;SDS011;4921;43.214;27.936;2023-07-20T14:07:21;7.00;;;5.30;;
9763;SDS011;4921;43.214;27.936;2023-07-20T14:09:49;7.37;;;5.73;;
9763;SDS011;4921;43.214;27.936;2023-07-20T14:12:17;15.63;;;6.20;;
9763;SDS011;4921;43.214;27.936;2023-07-20T14:14:45;7.87;;;5.70;;
9763;SDS011;4921;43.214;27.936;2023-07-20T14:17:11;8.93;;;5.77;;
9763;SDS011;4921;43.214;27.936;2023-07-20T14:19:38;8.37;;;5.80;;
9763;SDS011;4921;43.214;27.936;2023-07-20T14:22:05;6.97;;;5.77;;
9763;SDS011;4921;43.214;27.936;2023-07-20T14:24:32;8.67;;;5.40;;
9763;SDS011;4921;43.214;27.936;2023-07-20T14:26:59;15.40;;;6.70;;
9763;SDS011;4921;43.214;27.936;2023-07-20T14:29:28;8.13;;;5.93;;
9763;SDS011;4921;43.214;27.936;2023-07-20T14:31:56;9.07;;;5.90;;
9763;SDS011;4921;43.214;27.936;2023-07-20T14:34:24;6.83;;;5.90;;
9763;SDS011;4921;43.214;27.936;2023-07-20T14:36:51;9.50;;;6.00;;
9763;SDS011;4921;43.214;27.936;2023-07-20T14:39:18;6.73;;;6.10;;
9763;SDS011;4921;43.214;27.936;2023-07-20T14:41:46;6.70;;;6.00;;
9763;SDS011;4921;43.214;27.936;2023-07-20T14:44:12;7.90;;;6.33;;
9763;SDS011;4921;43.214;27.936;2023-07-20T14:46:41;8.67;;;6.67;;
9763;SDS011;4921;43.214;27.936;2023-07-20T14:49:08;7.40;;;6.53;;
9763;SDS011;4921;43.214;27.936;2023-07-20T14:51:36;10.20;;;6.40;;
9763;SDS011;4921;43.214;27.936;2023-07-20T14:54:08;6.67;;;6.07;;
9763;SDS011;4921;43.214;27.936;2023-07-20T14:56:35;8.53;;;7.10;;
9763;SDS011;4921;43.214;27.936;2023-07-20T14:59:04;7.17;;;6.47;;
9763;SDS011;4921;43.214;27.936;2023-07-20T15:01:31;7.50;;;6.80;;
9763;SDS011;4921;43.214;27.936;2023-07-20T15:04:00;7.27;;;6.77;;
9763;SDS011;4921;43.214;27.936;2023-07-20T15:06:27;7.10;;;6.40;;
9763;SDS011;4921;43.214;27.936;2023-07-20T15:08:55;8.90;;;7.03;;
9763;SDS011;4921;43.214;27.936;2023-07-20T15:11:22;13.40;;;7.07;;
9763;SDS011;4921;43.214;27.936;2023-07-20T15:13:50;11.33;;;9.20;;